createdAt,value
2023-10-06T00:08:03.699Z,17.7
2023-10-06T00:23:03.881Z,17.7
2023-10-06T00:38:05.428Z,17.7
2023-10-06T00:53:02.866Z,17.6
2023-10-06T01:08:13.964Z,17.6
2023-10-06T01:23:15.003Z,17.6
2023-10-06T01:38:16.019Z,17.5
2023-10-06T01:53:11.568Z,17.5
2023-10-06T02:08:21.916Z,17.5
2023-10-06T02:23:23.339Z,17.5
2023-10-06T02:38:23.202Z,17.5
2023-10-06T02:53:23.066Z,17.4
2023-10-06T03:08:34.284Z,17.4
2023-10-06T03:23:35.185Z,17.4
2023-10-06T03:38:36.213Z,17.4
2023-10-06T03:53:32.883Z,17.4
2023-10-06T04:08:45.345Z,17.4
2023-10-06T04:23:45.718Z,17.4
2023-10-06T04:38:47.070Z,17.4
2023-10-06T04:53:43.661Z,17.3
2023-10-06T05:08:53.983Z,17.2
2023-10-06T05:23:54.868Z,17.3
2023-10-06T05:38:55.816Z,17.3
2023-10-06T05:53:52.636Z,17.4
2023-10-06T06:09:03.535Z,17.4
2023-10-06T06:24:04.471Z,17.4
2023-10-06T06:39:05.757Z,17.4
2023-10-06T06:54:02.842Z,17.6
2023-10-06T07:09:15.427Z,17.6
2023-10-06T07:24:13.550Z,17.6
2023-10-06T07:39:14.626Z,17.6
2023-10-06T07:54:13.991Z,17.6
2023-10-06T08:09:24.247Z,17.6
2023-10-06T08:24:26.565Z,17.7
2023-10-06T08:39:26.894Z,17.7
2023-10-06T08:54:24.038Z,17.9
2023-10-06T09:09:34.791Z,17.9
2023-10-06T09:24:35.131Z,17.9
2023-10-06T09:39:37.381Z,17.9
2023-10-06T09:54:33.308Z,18
2023-10-06T10:09:44.401Z,18
2023-10-06T10:25:27.506Z,18
2023-10-06T10:39:45.344Z,18
2023-10-06T10:54:44.770Z,18.1
2023-10-06T11:09:54.762Z,18.1
2023-10-06T11:24:55.401Z,18.1
2023-10-06T11:39:56.535Z,18.1
2023-10-06T11:54:54.075Z,18.1
2023-10-06T12:10:05.288Z,18.1
2023-10-06T12:25:06.325Z,18.1
2023-10-06T12:40:06.553Z,18.1
2023-10-06T12:55:07.197Z,18.1
2023-10-06T13:10:32.750Z,18.1
2023-10-06T13:25:34.119Z,18.1
2023-10-06T13:40:35.135Z,18
2023-10-06T13:55:14.486Z,17.9
2023-10-06T14:10:24.931Z,17.9
2023-10-06T14:25:25.394Z,17.9
2023-10-06T14:40:27.170Z,17.9
2023-10-06T14:55:23.934Z,18
2023-10-06T15:10:34.448Z,18
2023-10-06T15:25:35.400Z,18
2023-10-06T15:40:36.721Z,18
2023-10-06T15:55:34.936Z,18
2023-10-06T16:10:45.496Z,18
2023-10-06T16:25:47.123Z,18
2023-10-06T16:40:47.987Z,18
2023-10-06T16:55:46.132Z,18.1
2023-10-06T17:10:57.893Z,18.1
2023-10-06T17:25:59.041Z,18.1
2023-10-06T17:41:00.103Z,18.1
2023-10-06T17:55:55.494Z,18
2023-10-06T18:11:05.777Z,18
2023-10-06T18:26:06.902Z,18
2023-10-06T18:41:07.782Z,18
2023-10-06T18:56:05.224Z,18.1
2023-10-06T19:11:15.494Z,18.1
2023-10-06T19:26:18.488Z,18.1
2023-10-06T19:41:17.905Z,18.1
2023-10-06T19:56:15.269Z,17.9
2023-10-06T20:11:26.465Z,17.9
2023-10-06T20:26:26.350Z,17.9
2023-10-06T20:41:27.915Z,17.8
2023-10-06T20:56:25.836Z,17.6
2023-10-06T21:11:36.527Z,17.6
2023-10-06T21:26:37.212Z,17.6
2023-10-06T21:41:38.667Z,17.6
2023-10-06T21:56:35.629Z,17.5
2023-10-06T22:11:45.708Z,17.5
2023-10-06T22:26:47.033Z,17.5
2023-10-06T22:41:47.645Z,17.4
2023-10-06T22:56:46.908Z,17.2
2023-10-06T23:11:58.171Z,17.2
2023-10-06T23:26:57.949Z,17.2
2023-10-06T23:41:59.792Z,17.2
2023-10-06T23:56:56.748Z,16.9
